createdAt,value
2023-02-14T00:02:41.200Z,3.10
2023-02-14T00:05:43.078Z,3.10
2023-02-14T00:08:44.828Z,3.00
2023-02-14T00:11:46.935Z,3.00
2023-02-14T00:15:07.029Z,2.90
2023-02-14T00:18:10.544Z,2.90
2023-02-14T00:21:12.398Z,2.80
2023-02-14T00:24:19.978Z,2.80
2023-02-14T00:27:21.661Z,2.80
2023-02-14T00:30:23.492Z,2.70
2023-02-14T00:33:25.276Z,2.60
2023-02-14T00:36:27.401Z,2.70
2023-02-14T00:39:29.126Z,2.60
2023-02-14T00:42:30.829Z,2.60
2023-02-14T00:45:32.532Z,2.60
2023-02-14T00:48:34.228Z,2.60
2023-02-14T00:51:36.033Z,2.50
2023-02-14T00:54:37.733Z,2.50
2023-02-14T00:57:39.394Z,2.60
2023-02-14T01:00:41.182Z,2.70
2023-02-14T01:03:42.905Z,2.40
2023-02-14T01:06:44.617Z,2.40
2023-02-14T01:09:48.217Z,2.40
2023-02-14T01:12:49.877Z,2.50
2023-02-14T01:15:52.168Z,2.30
2023-02-14T01:18:54.153Z,2.30
2023-02-14T01:21:56.045Z,2.40
2023-02-14T01:24:57.739Z,2.10
2023-02-14T01:27:59.848Z,2.20
2023-02-14T01:31:15.045Z,2.20
2023-02-14T01:44:45.439Z,2.30
2023-02-14T01:47:51.284Z,2.10
2023-02-14T01:50:54.289Z,2.00
2023-02-14T01:57:31.481Z,2.00
2023-02-14T02:00:52.135Z,2.00
2023-02-14T02:04:02.547Z,2.10
2023-02-14T02:07:13.947Z,2.10
2023-02-14T02:10:15.681Z,2.00
2023-02-14T02:13:19.842Z,2.00
2023-02-14T02:16:40.503Z,2.00
2023-02-14T02:20:01.220Z,1.80
2023-02-14T02:23:02.863Z,1.80
2023-02-14T02:26:40.778Z,1.90
2023-02-14T02:30:03.374Z,1.80
2023-02-14T02:33:43.454Z,1.80
2023-02-14T02:37:16.909Z,1.40
2023-02-14T02:40:40.822Z,1.80
2023-02-14T02:44:31.983Z,2.10
2023-02-14T02:47:43.763Z,1.90
2023-02-14T02:51:20.592Z,1.60
2023-02-14T02:54:37.948Z,1.60
2023-02-14T02:57:44.547Z,2.60
2023-02-14T03:00:53.944Z,1.60
2023-02-14T03:04:19.358Z,1.20
2023-02-14T03:07:40.552Z,1.60
2023-02-14T03:17:42.952Z,1.40
2023-02-14T03:20:55.936Z,1.50
2023-02-14T03:24:08.396Z,1.40
2023-02-14T03:27:20.272Z,2.00
2023-02-14T03:30:31.455Z,1.40
2023-02-14T03:33:44.052Z,1.40
2023-02-14T03:36:55.061Z,1.40
2023-02-14T03:46:59.353Z,1.50
2023-02-14T03:50:15.599Z,1.40
2023-02-14T03:53:22.158Z,1.50
2023-02-14T03:56:34.539Z,1.40
2023-02-14T03:59:36.388Z,1.50
2023-02-14T04:02:46.618Z,1.60
2023-02-14T04:05:52.178Z,1.60
2023-02-14T04:08:53.925Z,1.50
2023-02-14T04:12:06.252Z,1.50
2023-02-14T04:19:18.451Z,1.50
2023-02-14T04:22:30.440Z,1.50
2023-02-14T04:36:50.902Z,1.30
2023-02-14T04:43:26.502Z,1.10
2023-02-14T04:46:28.450Z,1.10
2023-02-14T04:49:55.521Z,1.70
2023-02-14T04:53:02.083Z,0.80
2023-02-14T04:56:04.159Z,2.00
2023-02-14T04:59:06.386Z,1.20
2023-02-14T05:02:08.440Z,1.10
2023-02-14T05:40:15.161Z,1.00
2023-02-14T05:43:27.465Z,0.80
2023-02-14T06:03:49.989Z,0.70
2023-02-14T06:06:51.703Z,0.70
2023-02-14T06:09:53.410Z,0.70
2023-02-14T06:12:55.548Z,0.60
2023-02-14T06:15:57.296Z,0.70
2023-02-14T06:18:59.004Z,0.70
2023-02-14T06:22:00.746Z,0.70
2023-02-14T06:25:02.683Z,0.70
2023-02-14T06:28:04.716Z,0.70
2023-02-14T06:31:06.492Z,0.70
2023-02-14T06:34:08.369Z,0.70
2023-02-14T06:37:10.065Z,0.70
2023-02-14T06:40:12.915Z,0.70
2023-02-14T06:43:14.630Z,0.70
2023-02-14T06:46:17.757Z,0.60
2023-02-14T06:49:19.510Z,0.70
2023-02-14T06:52:21.227Z,0.60
2023-02-14T06:55:22.937Z,0.60
2023-02-14T06:58:24.663Z,0.60
2023-02-14T07:01:26.383Z,0.60
2023-02-14T07:04:28.102Z,0.60
2023-02-14T07:07:29.819Z,0.60
2023-02-14T07:10:31.654Z,0.60
2023-02-14T07:13:33.446Z,0.70
2023-02-14T07:16:35.146Z,0.70
2023-02-14T07:19:36.846Z,0.70
2023-02-14T07:22:39.289Z,0.70
2023-02-14T07:25:41.113Z,0.80
2023-02-14T07:28:44.922Z,0.80
2023-02-14T07:31:47.036Z,1.00
2023-02-14T07:34:49.725Z,1.10
2023-02-14T07:37:51.682Z,1.10
2023-02-14T07:40:53.927Z,1.10
2023-02-14T07:43:55.665Z,1.10
2023-02-14T07:46:57.348Z,1.20
2023-02-14T07:49:59.056Z,1.30
2023-02-14T07:53:00.768Z,1.30
2023-02-14T07:56:02.481Z,1.40
2023-02-14T07:59:04.271Z,1.50
2023-02-14T08:02:06.230Z,1.50
2023-02-14T08:05:08.212Z,1.50
2023-02-14T08:08:10.038Z,1.60
2023-02-14T08:11:12.050Z,1.70
2023-02-14T08:14:13.830Z,1.80
2023-02-14T08:17:15.556Z,1.80
2023-02-14T08:20:17.320Z,1.90
2023-02-14T08:23:20.378Z,2.00
2023-02-14T08:26:22.242Z,2.00
2023-02-14T08:29:24.411Z,2.20
2023-02-14T08:32:26.317Z,2.30
2023-02-14T08:35:28.155Z,2.40
2023-02-14T08:38:29.986Z,2.50
2023-02-14T08:41:32.542Z,2.60
2023-02-14T08:44:34.311Z,2.70
2023-02-14T08:47:38.438Z,2.70
2023-02-14T08:50:40.637Z,2.90
2023-02-14T08:53:43.364Z,3.00
2023-02-14T08:56:45.127Z,3.10
2023-02-14T08:59:46.838Z,3.30
2023-02-14T09:02:52.525Z,3.50
2023-02-14T09:05:54.253Z,3.60
2023-02-14T09:08:56.297Z,3.90
2023-02-14T09:11:58.266Z,4.10
2023-02-14T09:15:00.134Z,4.40
2023-02-14T09:18:01.888Z,4.70
2023-02-14T09:21:08.381Z,5.00
2023-02-14T09:24:10.258Z,5.30
2023-02-14T09:27:12.380Z,5.60
2023-02-14T09:30:14.881Z,5.80
2023-02-14T09:33:16.576Z,6.20
2023-02-14T09:36:18.606Z,6.50
2023-02-14T09:39:20.345Z,6.80
2023-02-14T09:42:52.510Z,7.10
2023-02-14T09:45:58.479Z,7.40
2023-02-14T09:49:01.354Z,7.70
2023-02-14T09:52:06.716Z,7.80
2023-02-14T09:55:15.534Z,8.20
2023-02-14T09:58:23.410Z,8.50
2023-02-14T10:01:48.260Z,8.90
2023-02-14T10:05:06.374Z,9.00
2023-02-14T10:08:35.957Z,9.30
2023-02-14T10:11:38.726Z,9.70
2023-02-14T10:14:40.940Z,10.20
2023-02-14T10:17:47.573Z,10.30
2023-02-14T10:20:59.770Z,10.60
2023-02-14T10:24:24.685Z,10.80
2023-02-14T10:27:34.982Z,11.00
2023-02-14T10:30:39.540Z,11.20
2023-02-14T10:33:45.278Z,11.00
2023-02-14T10:36:59.050Z,11.40
2023-02-14T10:40:43.561Z,11.40
2023-02-14T10:43:57.277Z,11.50
2023-02-14T10:47:07.085Z,11.40
2023-02-14T10:50:52.565Z,11.60
2023-02-14T10:54:01.255Z,11.10
2023-02-14T10:57:35.535Z,11.30
2023-02-14T11:00:48.852Z,11.30
2023-02-14T11:04:03.413Z,10.90
2023-02-14T11:07:16.670Z,11.10
2023-02-14T11:10:26.642Z,11.20
2023-02-14T11:13:33.808Z,11.20
2023-02-14T11:16:37.469Z,11.40
2023-02-14T11:19:39.221Z,11.40
2023-02-14T11:22:40.978Z,11.60
2023-02-14T11:25:51.006Z,11.60
2023-02-14T11:29:12.781Z,11.50
2023-02-14T11:32:24.769Z,11.90
2023-02-14T11:35:34.325Z,11.60
2023-02-14T11:38:39.880Z,11.80
2023-02-14T11:41:48.983Z,12.00
2023-02-14T11:44:56.105Z,12.20
2023-02-14T11:48:37.651Z,12.70
2023-02-14T11:51:45.254Z,13.20
2023-02-14T11:54:49.417Z,13.80
2023-02-14T11:57:51.314Z,13.70
2023-02-14T12:00:54.177Z,14.00
2023-02-14T12:03:59.706Z,14.30
2023-02-14T12:07:18.635Z,14.80
2023-02-14T12:10:29.657Z,15.40
2023-02-14T12:13:40.111Z,15.90
2023-02-14T12:42:42.903Z,15.30
2023-02-14T12:46:15.680Z,16.00
2023-02-14T12:49:36.729Z,16.60
2023-02-14T12:53:16.089Z,17.00
2023-02-14T12:56:28.600Z,17.40
2023-02-14T12:59:43.280Z,18.10
2023-02-14T13:03:29.680Z,18.70
2023-02-14T13:06:45.496Z,18.70
2023-02-14T13:10:06.178Z,18.10
2023-02-14T13:13:17.010Z,17.00
2023-02-14T13:16:54.972Z,17.20
2023-02-14T13:20:14.882Z,16.30
2023-02-14T13:23:31.771Z,16.60
2023-02-14T13:27:07.047Z,16.60
2023-02-14T13:30:19.277Z,15.90
2023-02-14T13:33:36.493Z,17.60
2023-02-14T13:36:38.566Z,18.00
2023-02-14T13:39:50.316Z,18.60
2023-02-14T13:42:59.775Z,19.10
2023-02-14T13:46:01.616Z,19.60
2023-02-14T13:49:14.681Z,20.00
2023-02-14T13:52:40.125Z,19.90
2023-02-14T13:55:45.570Z,19.50
2023-02-14T13:58:51.154Z,18.40
2023-02-14T14:01:53.039Z,18.20
2023-02-14T14:04:54.882Z,17.60
2023-02-14T14:08:22.257Z,17.50
2023-02-14T14:11:24.000Z,17.50
2023-02-14T14:14:36.158Z,17.90
2023-02-14T14:17:45.991Z,17.00
2023-02-14T14:20:48.309Z,17.70
2023-02-14T14:24:17.950Z,17.70
2023-02-14T14:27:24.487Z,17.60
2023-02-14T14:30:33.435Z,16.90
2023-02-14T14:33:35.500Z,18.40
2023-02-14T14:36:37.222Z,18.20
2023-02-14T14:39:39.832Z,17.90
2023-02-14T14:42:42.526Z,18.40
2023-02-14T14:45:49.362Z,19.00
2023-02-14T14:48:54.421Z,19.10
2023-02-14T14:51:57.483Z,18.80
2023-02-14T14:55:00.776Z,20.00
2023-02-14T14:58:05.664Z,20.80
2023-02-14T15:01:13.092Z,19.70
2023-02-14T15:04:19.598Z,18.50
2023-02-14T15:07:30.972Z,17.70
2023-02-14T15:10:32.755Z,16.80
2023-02-14T15:13:50.952Z,15.80
2023-02-14T15:17:00.689Z,15.50
2023-02-14T15:20:22.807Z,14.80
2023-02-14T15:23:25.424Z,14.10
2023-02-14T15:26:32.762Z,14.20
2023-02-14T15:29:34.530Z,14.10
2023-02-14T15:32:37.224Z,14.30
2023-02-14T15:35:43.942Z,14.30
2023-02-14T15:38:46.212Z,14.20
2023-02-14T15:41:48.011Z,13.70
2023-02-14T15:44:49.778Z,13.90
2023-02-14T15:48:19.212Z,13.60
2023-02-14T15:51:24.506Z,13.40
2023-02-14T15:54:33.732Z,13.10
2023-02-14T15:57:36.540Z,12.90
2023-02-14T16:00:38.322Z,12.80
2023-02-14T16:03:43.662Z,12.80
2023-02-14T16:06:48.077Z,12.50
2023-02-14T16:10:25.219Z,12.50
2023-02-14T16:13:32.930Z,12.40
2023-02-14T16:16:58.540Z,12.20
2023-02-14T16:20:20.535Z,12.00
2023-02-14T16:23:22.296Z,11.80
2023-02-14T16:26:24.024Z,11.70
2023-02-14T16:29:25.787Z,11.60
2023-02-14T16:32:27.644Z,11.30
2023-02-14T16:35:30.547Z,11.20
2023-02-14T16:38:35.518Z,11.00
2023-02-14T16:41:41.828Z,11.00
2023-02-14T16:44:44.264Z,10.90
2023-02-14T16:47:47.544Z,10.90
2023-02-14T16:50:49.332Z,10.90
2023-02-14T16:53:51.180Z,10.50
2023-02-14T16:57:05.654Z,10.30
2023-02-14T17:00:09.485Z,10.00
2023-02-14T17:03:11.619Z,9.90
2023-02-14T17:06:16.921Z,9.70
2023-02-14T17:09:24.250Z,9.80
2023-02-14T17:12:30.658Z,9.50
2023-02-14T17:15:33.857Z,9.40
2023-02-14T17:18:37.274Z,9.40
2023-02-14T17:21:39.186Z,9.40
2023-02-14T17:24:41.376Z,9.40
2023-02-14T17:27:44.462Z,9.40
2023-02-14T17:30:47.447Z,9.20
2023-02-14T17:33:49.134Z,9.10
2023-02-14T17:36:51.934Z,9.00
2023-02-14T17:39:53.665Z,8.70
2023-02-14T17:42:55.381Z,8.40
2023-02-14T17:45:57.289Z,8.40
2023-02-14T17:49:01.699Z,8.40
2023-02-14T17:52:04.036Z,8.40
2023-02-14T17:55:06.837Z,8.40
2023-02-14T17:58:08.665Z,8.20
2023-02-14T18:01:11.978Z,8.00
2023-02-14T18:04:13.696Z,7.90
2023-02-14T18:07:15.523Z,7.90
2023-02-14T18:10:17.395Z,7.80
2023-02-14T18:13:19.085Z,7.70
2023-02-14T18:16:21.723Z,7.70
2023-02-14T18:19:23.407Z,7.50
2023-02-14T18:22:25.129Z,7.20
2023-02-14T18:25:26.836Z,7.30
2023-02-14T18:28:28.647Z,7.20
2023-02-14T18:31:30.597Z,7.20
2023-02-14T18:34:35.241Z,7.10
2023-02-14T18:37:36.928Z,7.00
2023-02-14T18:40:39.577Z,6.80
2023-02-14T18:43:42.185Z,6.80
2023-02-14T18:46:43.913Z,6.70
2023-02-14T18:49:45.666Z,6.60
2023-02-14T18:52:47.409Z,6.60
2023-02-14T18:55:49.137Z,6.60
2023-02-14T18:58:56.105Z,6.60
2023-02-14T19:01:57.806Z,6.60
2023-02-14T19:04:59.596Z,6.50
2023-02-14T19:08:01.332Z,6.50
2023-02-14T19:11:03.163Z,6.20
2023-02-14T19:14:09.910Z,6.20
2023-02-14T19:17:12.997Z,6.30
2023-02-14T19:20:15.074Z,6.10
2023-02-14T19:23:16.959Z,6.00
2023-02-14T19:26:26.973Z,6.00
2023-02-14T19:29:28.736Z,5.80
2023-02-14T19:32:31.145Z,5.80
2023-02-14T19:35:32.848Z,5.70
2023-02-14T19:38:35.374Z,5.80
2023-02-14T19:41:37.357Z,5.80
2023-02-14T19:44:40.318Z,5.60
2023-02-14T19:47:47.039Z,5.50
2023-02-14T19:50:49.893Z,5.30
2023-02-14T19:53:52.198Z,5.20
2023-02-14T19:56:56.034Z,5.20
2023-02-14T19:59:58.001Z,5.20
2023-02-14T20:03:03.188Z,5.20
2023-02-14T20:06:04.979Z,5.00
2023-02-14T20:09:08.439Z,5.10
2023-02-14T20:12:10.138Z,5.00
2023-02-14T20:15:12.116Z,4.90
2023-02-14T20:18:13.809Z,4.80
2023-02-14T20:21:17.936Z,4.80
2023-02-14T20:24:28.780Z,4.80
2023-02-14T20:27:30.444Z,4.90
2023-02-14T20:30:32.226Z,4.90
2023-02-14T20:33:33.972Z,4.80
2023-02-14T20:36:36.008Z,4.70
2023-02-14T20:39:38.121Z,4.70
2023-02-14T20:42:40.480Z,4.70
2023-02-14T20:45:42.156Z,4.50
2023-02-14T20:48:43.970Z,4.50
2023-02-14T20:51:46.489Z,4.60
2023-02-14T20:54:48.326Z,4.50
2023-02-14T20:57:50.130Z,4.60
2023-02-14T21:00:51.833Z,4.50
2023-02-14T21:03:54.340Z,4.20
2023-02-14T21:06:57.718Z,4.20
2023-02-14T21:09:59.659Z,4.30
2023-02-14T21:13:01.342Z,4.10
2023-02-14T21:16:07.776Z,4.00
2023-02-14T21:19:09.523Z,4.00
2023-02-14T21:22:11.261Z,4.00
2023-02-14T21:25:12.963Z,3.90
2023-02-14T21:28:14.728Z,3.90
2023-02-14T21:31:20.598Z,4.00
2023-02-14T21:34:22.355Z,4.00
2023-02-14T21:37:24.055Z,3.80
2023-02-14T21:40:25.747Z,3.90
2023-02-14T21:43:27.499Z,3.80
2023-02-14T21:46:31.964Z,3.80
2023-02-14T21:49:52.577Z,3.60
2023-02-14T21:52:54.321Z,3.60
2023-02-14T21:55:55.975Z,3.50
2023-02-14T21:58:57.678Z,3.40
2023-02-14T22:01:59.416Z,3.40
2023-02-14T22:05:01.146Z,3.50
2023-02-14T22:08:02.894Z,3.40
2023-02-14T22:11:06.824Z,3.50
2023-02-14T22:14:08.590Z,3.40
2023-02-14T22:17:10.296Z,3.30
2023-02-14T22:20:12.303Z,3.40
2023-02-14T22:23:14.001Z,3.10
2023-02-14T22:26:22.929Z,3.10
2023-02-14T22:29:24.766Z,3.00
2023-02-14T22:32:26.442Z,3.00
2023-02-14T22:35:28.195Z,3.00
2023-02-14T22:38:30.112Z,3.00
2023-02-14T22:41:31.908Z,2.90
2023-02-14T22:44:33.668Z,2.90
2023-02-14T22:47:35.348Z,3.00
2023-02-14T22:50:37.337Z,2.90
2023-02-14T22:53:39.296Z,2.80
2023-02-14T22:56:44.479Z,2.80
2023-02-14T22:59:46.208Z,2.80
2023-02-14T23:02:47.988Z,2.70
2023-02-14T23:05:56.428Z,2.50
2023-02-14T23:08:58.740Z,2.60
2023-02-14T23:12:00.415Z,2.60
2023-02-14T23:15:20.564Z,2.60
2023-02-14T23:18:41.123Z,2.60
2023-02-14T23:21:54.977Z,2.60
2023-02-14T23:24:59.524Z,2.60
2023-02-14T23:28:01.269Z,2.60
2023-02-14T23:31:03.129Z,2.60
2023-02-14T23:34:04.885Z,2.50
2023-02-14T23:37:08.126Z,2.50
2023-02-14T23:40:10.176Z,2.40
2023-02-14T23:43:11.895Z,2.30
2023-02-14T23:46:13.626Z,2.30
2023-02-14T23:49:16.054Z,2.30
2023-02-14T23:52:17.795Z,2.10
2023-02-14T23:55:19.563Z,2.20
2023-02-14T23:58:21.259Z,2.10
